Birmingham, New Jersey
Current Conditions -  °F | °C
As of 4:58 PM on Thursday 27 Nov 2014 (Local Time) from KWRI Reporting Station
Broken Clouds Broken Clouds  
Wind Chill: 29°   Ceiling: 6000
Heat Index: 34°   Visibility: 10mi
Dew Point: 27°   Wind: 6mph
Humidity: 75%   Direction: 310°NW
Pressure: 30.01"   Gusts: NA
Location:  39.98°N, 74.71°W
Report Text: KWRI 272158Z AUTO 31005KT 10SM BKN060 01/M03 A3001 RMK AO2 SLP167 T00111028
Loading
Personal Weather Stations






























Interactive Weather Map New forecast layout! Learn more

10-Day Weather Forecast

Advertisements
Track Severe Weather on mobile